sensor_id;sensor_type;location;lat;lon;timestamp;P1;durP1;ratioP1;P2;durP2;ratioP2
1404;SDS011;697;51.114;6.542;2022-07-21T00:00:55;4.90;;;4.60;;
1404;SDS011;697;51.114;6.542;2022-07-21T00:03:22;5.63;;;5.13;;
1404;SDS011;697;51.114;6.542;2022-07-21T00:05:49;5.77;;;5.27;;
1404;SDS011;697;51.114;6.542;2022-07-21T00:08:15;7.00;;;4.90;;
1404;SDS011;697;51.114;6.542;2022-07-21T00:10:42;5.70;;;5.13;;
1404;SDS011;697;51.114;6.542;2022-07-21T00:13:11;6.83;;;5.27;;
1404;SDS011;697;51.114;6.542;2022-07-21T00:15:37;5.00;;;4.60;;
1404;SDS011;697;51.114;6.542;2022-07-21T00:18:04;5.10;;;4.60;;
1404;SDS011;697;51.114;6.542;2022-07-21T00:20:32;5.43;;;4.90;;
1404;SDS011;697;51.114;6.542;2022-07-21T00:22:59;5.03;;;4.63;;
1404;SDS011;697;51.114;6.542;2022-07-21T00:25:26;5.40;;;4.90;;
1404;SDS011;697;51.114;6.542;2022-07-21T00:27:53;5.17;;;4.70;;
1404;SDS011;697;51.114;6.542;2022-07-21T00:30:21;5.77;;;5.07;;
1404;SDS011;697;51.114;6.542;2022-07-21T00:32:48;5.33;;;4.87;;
1404;SDS011;697;51.114;6.542;2022-07-21T00:35:15;5.90;;;5.23;;
1404;SDS011;697;51.114;6.542;2022-07-21T00:37:42;5.17;;;4.73;;
1404;SDS011;697;51.114;6.542;2022-07-21T00:40:10;7.40;;;4.80;;
1404;SDS011;697;51.114;6.542;2022-07-21T00:42:40;5.43;;;4.90;;
1404;SDS011;697;51.114;6.542;2022-07-21T00:45:08;6.10;;;4.60;;
1404;SDS011;697;51.114;6.542;2022-07-21T00:47:37;5.60;;;5.20;;
1404;SDS011;697;51.114;6.542;2022-07-21T00:50:05;5.30;;;4.80;;
1404;SDS011;697;51.114;6.542;2022-07-21T00:52:34;5.43;;;4.93;;
1404;SDS011;697;51.114;6.542;2022-07-21T00:55:01;5.60;;;5.13;;
1404;SDS011;697;51.114;6.542;2022-07-21T00:57:28;6.40;;;4.97;;
1404;SDS011;697;51.114;6.542;2022-07-21T00:59:55;5.43;;;4.70;;
1404;SDS011;697;51.114;6.542;2022-07-21T01:02:22;5.57;;;4.87;;
1404;SDS011;697;51.114;6.542;2022-07-21T01:04:53;5.40;;;5.00;;
1404;SDS011;697;51.114;6.542;2022-07-21T01:07:20;6.20;;;5.60;;
1404;SDS011;697;51.114;6.542;2022-07-21T01:09:46;5.27;;;4.80;;
1404;SDS011;697;51.114;6.542;2022-07-21T01:12:13;5.80;;;5.30;;
1404;SDS011;697;51.114;6.542;2022-07-21T01:14:40;6.10;;;5.17;;
1404;SDS011;697;51.114;6.542;2022-07-21T01:17:07;6.30;;;5.70;;
1404;SDS011;697;51.114;6.542;2022-07-21T01:19:34;7.27;;;6.47;;
1404;SDS011;697;51.114;6.542;2022-07-21T01:22:02;6.00;;;5.40;;
1404;SDS011;697;51.114;6.542;2022-07-21T01:24:29;6.83;;;5.20;;
1404;SDS011;697;51.114;6.542;2022-07-21T01:26:56;6.03;;;5.33;;
1404;SDS011;697;51.114;6.542;2022-07-21T01:29:23;7.53;;;5.03;;
1404;SDS011;697;51.114;6.542;2022-07-21T01:31:50;5.57;;;5.10;;
1404;SDS011;697;51.114;6.542;2022-07-21T01:34:17;6.03;;;5.40;;
1404;SDS011;697;51.114;6.542;2022-07-21T01:36:44;6.60;;;5.00;;
1404;SDS011;697;51.114;6.542;2022-07-21T01:39:13;5.10;;;4.60;;
1404;SDS011;697;51.114;6.542;2022-07-21T01:41:57;7.00;;;5.47;;
1404;SDS011;697;51.114;6.542;2022-07-21T01:44:24;8.00;;;5.53;;
1404;SDS011;697;51.114;6.542;2022-07-21T01:46:51;6.27;;;5.67;;
1404;SDS011;697;51.114;6.542;2022-07-21T01:49:19;6.87;;;6.17;;
1404;SDS011;697;51.114;6.542;2022-07-21T01:51:47;8.03;;;5.97;;
1404;SDS011;697;51.114;6.542;2022-07-21T01:54:16;6.47;;;5.87;;
1404;SDS011;697;51.114;6.542;2022-07-21T01:56:43;6.90;;;6.30;;
1404;SDS011;697;51.114;6.542;2022-07-21T01:59:10;7.60;;;6.53;;
1404;SDS011;697;51.114;6.542;2022-07-21T02:01:37;8.70;;;6.13;;
1404;SDS011;697;51.114;6.542;2022-07-21T02:04:04;8.20;;;5.73;;
1404;SDS011;697;51.114;6.542;2022-07-21T02:06:31;7.00;;;5.77;;
1404;SDS011;697;51.114;6.542;2022-07-21T02:08:58;9.23;;;7.40;;
1404;SDS011;697;51.114;6.542;2022-07-21T02:11:26;7.20;;;6.00;;
1404;SDS011;697;51.114;6.542;2022-07-21T02:13:53;8.37;;;6.60;;
1404;SDS011;697;51.114;6.542;2022-07-21T02:16:20;8.33;;;6.87;;
1404;SDS011;697;51.114;6.542;2022-07-21T02:18:47;8.97;;;7.10;;
1404;SDS011;697;51.114;6.542;2022-07-21T02:21:14;8.13;;;7.30;;
1404;SDS011;697;51.114;6.542;2022-07-21T02:23:41;8.73;;;7.93;;
1404;SDS011;697;51.114;6.542;2022-07-21T02:26:07;9.03;;;7.50;;
1404;SDS011;697;51.114;6.542;2022-07-21T02:28:35;8.60;;;7.90;;
1404;SDS011;697;51.114;6.542;2022-07-21T02:31:02;12.07;;;8.20;;
1404;SDS011;697;51.114;6.542;2022-07-21T02:33:29;8.83;;;8.00;;
1404;SDS011;697;51.114;6.542;2022-07-21T02:35:56;12.80;;;7.53;;
1404;SDS011;697;51.114;6.542;2022-07-21T02:38:23;10.23;;;8.47;;
1404;SDS011;697;51.114;6.542;2022-07-21T02:40:50;8.87;;;7.77;;
1404;SDS011;697;51.114;6.542;2022-07-21T02:43:16;10.93;;;9.93;;
1404;SDS011;697;51.114;6.542;2022-07-21T02:45:45;9.53;;;8.07;;
1404;SDS011;697;51.114;6.542;2022-07-21T02:48:12;10.27;;;9.27;;
1404;SDS011;697;51.114;6.542;2022-07-21T02:50:39;9.47;;;8.77;;
1404;SDS011;697;51.114;6.542;2022-07-21T02:53:08;9.87;;;8.90;;
1404;SDS011;697;51.114;6.542;2022-07-21T02:55:37;8.33;;;7.57;;
1404;SDS011;697;51.114;6.542;2022-07-21T02:58:04;9.97;;;9.00;;
1404;SDS011;697;51.114;6.542;2022-07-21T03:00:34;9.30;;;8.50;;
1404;SDS011;697;51.114;6.542;2022-07-21T03:03:03;10.07;;;9.10;;
1404;SDS011;697;51.114;6.542;2022-07-21T03:05:30;10.57;;;9.20;;
1404;SDS011;697;51.114;6.542;2022-07-21T03:07:57;9.37;;;8.67;;
1404;SDS011;697;51.114;6.542;2022-07-21T03:10:24;10.53;;;9.47;;
1404;SDS011;697;51.114;6.542;2022-07-21T03:12:51;10.67;;;9.70;;
1404;SDS011;697;51.114;6.542;2022-07-21T03:15:18;10.87;;;9.57;;
1404;SDS011;697;51.114;6.542;2022-07-21T03:17:45;10.00;;;9.10;;
1404;SDS011;697;51.114;6.542;2022-07-21T03:20:13;10.07;;;9.10;;
1404;SDS011;697;51.114;6.542;2022-07-21T03:22:40;10.57;;;9.03;;
1404;SDS011;697;51.114;6.542;2022-07-21T03:25:07;9.17;;;8.33;;
1404;SDS011;697;51.114;6.542;2022-07-21T03:27:34;9.80;;;8.90;;
1404;SDS011;697;51.114;6.542;2022-07-21T03:30:03;10.23;;;9.40;;
1404;SDS011;697;51.114;6.542;2022-07-21T03:32:31;9.87;;;8.77;;
1404;SDS011;697;51.114;6.542;2022-07-21T03:34:58;10.37;;;9.30;;
1404;SDS011;697;51.114;6.542;2022-07-21T03:37:27;10.30;;;9.40;;
1404;SDS011;697;51.114;6.542;2022-07-21T03:39:54;9.60;;;8.70;;
1404;SDS011;697;51.114;6.542;2022-07-21T03:42:21;10.33;;;9.43;;
1404;SDS011;697;51.114;6.542;2022-07-21T03:44:47;10.03;;;9.10;;
1404;SDS011;697;51.114;6.542;2022-07-21T03:47:14;9.93;;;9.07;;
1404;SDS011;697;51.114;6.542;2022-07-21T03:49:41;9.67;;;8.90;;
1404;SDS011;697;51.114;6.542;2022-07-21T03:52:09;12.47;;;11.37;;
1404;SDS011;697;51.114;6.542;2022-07-21T03:54:37;10.17;;;9.27;;
1404;SDS011;697;51.114;6.542;2022-07-21T03:57:03;10.07;;;9.27;;
1404;SDS011;697;51.114;6.542;2022-07-21T03:59:30;9.80;;;8.90;;
1404;SDS011;697;51.114;6.542;2022-07-21T04:01:57;10.67;;;9.67;;
1404;SDS011;697;51.114;6.542;2022-07-21T04:04:24;10.63;;;9.63;;
1404;SDS011;697;51.114;6.542;2022-07-21T04:06:50;10.60;;;8.57;;
1404;SDS011;697;51.114;6.542;2022-07-21T04:09:17;10.03;;;9.23;;
1404;SDS011;697;51.114;6.542;2022-07-21T04:11:45;10.50;;;9.60;;
1404;SDS011;697;51.114;6.542;2022-07-21T04:14:12;9.90;;;9.10;;
1404;SDS011;697;51.114;6.542;2022-07-21T04:16:39;10.93;;;9.83;;
1404;SDS011;697;51.114;6.542;2022-07-21T04:19:05;13.80;;;10.40;;
1404;SDS011;697;51.114;6.542;2022-07-21T04:21:32;10.77;;;9.67;;
1404;SDS011;697;51.114;6.542;2022-07-21T04:23:59;11.20;;;9.70;;
1404;SDS011;697;51.114;6.542;2022-07-21T04:26:26;10.40;;;9.30;;
1404;SDS011;697;51.114;6.542;2022-07-21T04:28:55;12.07;;;9.00;;
1404;SDS011;697;51.114;6.542;2022-07-21T04:31:21;10.57;;;9.60;;
1404;SDS011;697;51.114;6.542;2022-07-21T04:33:48;10.83;;;9.90;;
1404;SDS011;697;51.114;6.542;2022-07-21T04:36:15;9.70;;;8.90;;
1404;SDS011;697;51.114;6.542;2022-07-21T04:38:42;11.83;;;9.53;;
1404;SDS011;697;51.114;6.542;2022-07-21T04:41:08;14.97;;;9.70;;
1404;SDS011;697;51.114;6.542;2022-07-21T04:43:35;10.33;;;9.50;;
1404;SDS011;697;51.114;6.542;2022-07-21T04:46:03;11.63;;;9.40;;
1404;SDS011;697;51.114;6.542;2022-07-21T04:48:30;11.40;;;10.20;;
1404;SDS011;697;51.114;6.542;2022-07-21T04:50:56;12.43;;;10.00;;
1404;SDS011;697;51.114;6.542;2022-07-21T04:53:23;10.53;;;9.50;;
1404;SDS011;697;51.114;6.542;2022-07-21T04:55:50;10.83;;;9.67;;
1404;SDS011;697;51.114;6.542;2022-07-21T04:58:17;11.23;;;10.23;;
1404;SDS011;697;51.114;6.542;2022-07-21T05:00:43;11.47;;;10.27;;
1404;SDS011;697;51.114;6.542;2022-07-21T05:03:12;12.00;;;10.10;;
1404;SDS011;697;51.114;6.542;2022-07-21T05:05:39;11.63;;;10.43;;
1404;SDS011;697;51.114;6.542;2022-07-21T05:08:06;11.80;;;10.60;;
1404;SDS011;697;51.114;6.542;2022-07-21T05:10:32;11.73;;;10.63;;
1404;SDS011;697;51.114;6.542;2022-07-21T05:12:59;11.97;;;10.73;;
1404;SDS011;697;51.114;6.542;2022-07-21T05:15:26;12.33;;;10.97;;
1404;SDS011;697;51.114;6.542;2022-07-21T05:17:53;11.93;;;10.50;;
1404;SDS011;697;51.114;6.542;2022-07-21T05:20:21;12.00;;;10.70;;
1404;SDS011;697;51.114;6.542;2022-07-21T05:22:48;11.63;;;10.63;;
1404;SDS011;697;51.114;6.542;2022-07-21T05:25:14;11.50;;;10.50;;
1404;SDS011;697;51.114;6.542;2022-07-21T05:27:41;11.43;;;10.43;;
1404;SDS011;697;51.114;6.542;2022-07-21T05:30:08;11.53;;;10.63;;
1404;SDS011;697;51.114;6.542;2022-07-21T05:32:36;11.87;;;10.70;;
1404;SDS011;697;51.114;6.542;2022-07-21T05:35:03;11.83;;;10.60;;
1404;SDS011;697;51.114;6.542;2022-07-21T05:37:34;10.30;;;9.27;;
1404;SDS011;697;51.114;6.542;2022-07-21T05:40:01;9.67;;;8.70;;
1404;SDS011;697;51.114;6.542;2022-07-21T05:42:29;11.03;;;10.03;;
1404;SDS011;697;51.114;6.542;2022-07-21T05:44:56;10.67;;;9.73;;
1404;SDS011;697;51.114;6.542;2022-07-21T05:47:23;10.70;;;9.70;;
1404;SDS011;697;51.114;6.542;2022-07-21T05:49:50;11.33;;;10.17;;
1404;SDS011;697;51.114;6.542;2022-07-21T05:52:16;12.53;;;9.33;;
1404;SDS011;697;51.114;6.542;2022-07-21T05:54:45;9.73;;;8.80;;
1404;SDS011;697;51.114;6.542;2022-07-21T05:57:11;11.53;;;9.70;;
1404;SDS011;697;51.114;6.542;2022-07-21T05:59:38;13.60;;;9.07;;
1404;SDS011;697;51.114;6.542;2022-07-21T06:02:05;10.07;;;9.13;;
1404;SDS011;697;51.114;6.542;2022-07-21T06:04:32;11.07;;;9.90;;
1404;SDS011;697;51.114;6.542;2022-07-21T06:06:59;10.20;;;9.10;;
1404;SDS011;697;51.114;6.542;2022-07-21T06:09:26;11.50;;;9.23;;
1404;SDS011;697;51.114;6.542;2022-07-21T06:11:54;12.53;;;9.33;;
1404;SDS011;697;51.114;6.542;2022-07-21T06:14:21;9.10;;;8.30;;
1404;SDS011;697;51.114;6.542;2022-07-21T06:16:48;10.30;;;8.87;;
1404;SDS011;697;51.114;6.542;2022-07-21T06:19:15;10.70;;;9.20;;
1404;SDS011;697;51.114;6.542;2022-07-21T06:21:42;9.90;;;8.30;;
1404;SDS011;697;51.114;6.542;2022-07-21T06:24:09;9.30;;;8.37;;
1404;SDS011;697;51.114;6.542;2022-07-21T06:26:36;9.53;;;8.60;;
1404;SDS011;697;51.114;6.542;2022-07-21T06:29:05;12.97;;;8.67;;
1404;SDS011;697;51.114;6.542;2022-07-21T06:31:32;10.03;;;8.10;;
1404;SDS011;697;51.114;6.542;2022-07-21T06:33:59;9.70;;;8.90;;
1404;SDS011;697;51.114;6.542;2022-07-21T06:36:25;11.63;;;9.27;;
1404;SDS011;697;51.114;6.542;2022-07-21T06:38:52;10.40;;;8.77;;
1404;SDS011;697;51.114;6.542;2022-07-21T06:41:19;9.33;;;8.43;;
1404;SDS011;697;51.114;6.542;2022-07-21T06:43:46;9.27;;;8.47;;
1404;SDS011;697;51.114;6.542;2022-07-21T06:46:14;10.03;;;8.00;;
1404;SDS011;697;51.114;6.542;2022-07-21T06:48:41;8.77;;;7.17;;
1404;SDS011;697;51.114;6.542;2022-07-21T06:51:07;7.97;;;7.27;;
1404;SDS011;697;51.114;6.542;2022-07-21T06:53:34;7.10;;;5.70;;
1404;SDS011;697;51.114;6.542;2022-07-21T06:56:01;7.70;;;6.27;;
1404;SDS011;697;51.114;6.542;2022-07-21T06:58:28;7.37;;;6.77;;
1404;SDS011;697;51.114;6.542;2022-07-21T07:00:55;6.40;;;5.80;;
1404;SDS011;697;51.114;6.542;2022-07-21T07:03:23;8.30;;;6.50;;
1404;SDS011;697;51.114;6.542;2022-07-21T07:05:50;7.37;;;6.63;;
1404;SDS011;697;51.114;6.542;2022-07-21T07:08:16;9.63;;;7.20;;
1404;SDS011;697;51.114;6.542;2022-07-21T07:10:44;6.93;;;6.33;;
1404;SDS011;697;51.114;6.542;2022-07-21T07:13:12;7.13;;;6.57;;
1404;SDS011;697;51.114;6.542;2022-07-21T07:15:40;8.97;;;6.57;;
1404;SDS011;697;51.114;6.542;2022-07-21T07:18:07;5.80;;;5.30;;
1404;SDS011;697;51.114;6.542;2022-07-21T07:20:35;6.97;;;6.40;;
1404;SDS011;697;51.114;6.542;2022-07-21T07:23:02;10.00;;;6.50;;
1404;SDS011;697;51.114;6.542;2022-07-21T07:25:29;6.63;;;5.93;;
1404;SDS011;697;51.114;6.542;2022-07-21T07:27:56;6.60;;;6.03;;
1404;SDS011;697;51.114;6.542;2022-07-21T07:30:23;6.77;;;5.83;;
1404;SDS011;697;51.114;6.542;2022-07-21T07:32:50;7.40;;;5.70;;
1404;SDS011;697;51.114;6.542;2022-07-21T07:35:17;7.40;;;6.20;;
1404;SDS011;697;51.114;6.542;2022-07-21T07:37:45;7.53;;;6.83;;
1404;SDS011;697;51.114;6.542;2022-07-21T07:40:14;10.73;;;6.87;;
1404;SDS011;697;51.114;6.542;2022-07-21T07:42:42;8.63;;;6.77;;
1404;SDS011;697;51.114;6.542;2022-07-21T07:45:10;6.37;;;5.80;;
1404;SDS011;697;51.114;6.542;2022-07-21T07:47:38;6.40;;;5.90;;
1404;SDS011;697;51.114;6.542;2022-07-21T07:50:07;8.73;;;6.23;;
1404;SDS011;697;51.114;6.542;2022-07-21T07:52:35;7.87;;;7.20;;
1404;SDS011;697;51.114;6.542;2022-07-21T07:55:04;7.43;;;6.63;;
1404;SDS011;697;51.114;6.542;2022-07-21T07:57:33;7.93;;;7.07;;
1404;SDS011;697;51.114;6.542;2022-07-21T08:00:00;8.07;;;7.37;;
1404;SDS011;697;51.114;6.542;2022-07-21T08:02:27;8.23;;;7.53;;
1404;SDS011;697;51.114;6.542;2022-07-21T08:04:53;11.93;;;8.47;;
1404;SDS011;697;51.114;6.542;2022-07-21T08:07:20;8.57;;;7.77;;
1404;SDS011;697;51.114;6.542;2022-07-21T08:09:47;10.00;;;8.97;;
1404;SDS011;697;51.114;6.542;2022-07-21T08:12:15;10.10;;;9.00;;
1404;SDS011;697;51.114;6.542;2022-07-21T08:14:42;8.67;;;7.83;;
1404;SDS011;697;51.114;6.542;2022-07-21T08:17:09;9.00;;;8.23;;
1404;SDS011;697;51.114;6.542;2022-07-21T08:19:35;8.87;;;8.00;;
1404;SDS011;697;51.114;6.542;2022-07-21T08:22:02;9.33;;;8.43;;
1404;SDS011;697;51.114;6.542;2022-07-21T08:24:29;8.23;;;7.43;;
1404;SDS011;697;51.114;6.542;2022-07-21T08:26:56;10.43;;;7.83;;
1404;SDS011;697;51.114;6.542;2022-07-21T08:29:24;8.77;;;8.17;;
1404;SDS011;697;51.114;6.542;2022-07-21T08:31:50;9.40;;;8.23;;
1404;SDS011;697;51.114;6.542;2022-07-21T08:34:17;9.40;;;8.53;;
1404;SDS011;697;51.114;6.542;2022-07-21T08:36:44;13.43;;;9.00;;
1404;SDS011;697;51.114;6.542;2022-07-21T08:39:11;10.93;;;9.80;;
1404;SDS011;697;51.114;6.542;2022-07-21T08:41:37;10.73;;;9.93;;
1404;SDS011;697;51.114;6.542;2022-07-21T08:44:06;11.37;;;9.90;;
1404;SDS011;697;51.114;6.542;2022-07-21T08:46:37;9.97;;;9.07;;
1404;SDS011;697;51.114;6.542;2022-07-21T08:49:06;10.00;;;9.00;;
1404;SDS011;697;51.114;6.542;2022-07-21T08:51:35;9.93;;;8.90;;
1404;SDS011;697;51.114;6.542;2022-07-21T08:54:02;9.30;;;8.40;;
1404;SDS011;697;51.114;6.542;2022-07-21T08:56:30;8.07;;;7.33;;
1404;SDS011;697;51.114;6.542;2022-07-21T08:58:57;8.20;;;7.43;;
1404;SDS011;697;51.114;6.542;2022-07-21T09:01:24;8.77;;;7.97;;
1404;SDS011;697;51.114;6.542;2022-07-21T09:03:53;9.17;;;8.37;;
1404;SDS011;697;51.114;6.542;2022-07-21T09:06:19;9.07;;;6.77;;
1404;SDS011;697;51.114;6.542;2022-07-21T09:08:47;9.00;;;6.90;;
1404;SDS011;697;51.114;6.542;2022-07-21T09:11:17;8.73;;;7.93;;
1404;SDS011;697;51.114;6.542;2022-07-21T09:13:46;11.70;;;7.70;;
1404;SDS011;697;51.114;6.542;2022-07-21T09:16:31;7.63;;;6.83;;
1404;SDS011;697;51.114;6.542;2022-07-21T09:19:02;9.07;;;7.03;;
1404;SDS011;697;51.114;6.542;2022-07-21T09:21:30;7.27;;;6.57;;
1404;SDS011;697;51.114;6.542;2022-07-21T09:24:10;9.43;;;7.50;;
1404;SDS011;697;51.114;6.542;2022-07-21T09:27:00;6.73;;;6.23;;
1404;SDS011;697;51.114;6.542;2022-07-21T09:29:38;7.00;;;6.30;;
1404;SDS011;697;51.114;6.542;2022-07-21T09:32:17;9.77;;;7.13;;
1404;SDS011;697;51.114;6.542;2022-07-21T09:34:48;7.40;;;6.13;;
1404;SDS011;697;51.114;6.542;2022-07-21T09:37:16;8.93;;;7.20;;
1404;SDS011;697;51.114;6.542;2022-07-21T09:39:43;11.37;;;7.30;;
1404;SDS011;697;51.114;6.542;2022-07-21T09:42:11;7.60;;;6.20;;
1404;SDS011;697;51.114;6.542;2022-07-21T09:44:41;8.20;;;6.90;;
1404;SDS011;697;51.114;6.542;2022-07-21T09:47:09;8.53;;;7.80;;
1404;SDS011;697;51.114;6.542;2022-07-21T09:49:37;7.50;;;6.83;;
1404;SDS011;697;51.114;6.542;2022-07-21T09:52:18;10.67;;;8.30;;
1404;SDS011;697;51.114;6.542;2022-07-21T09:54:46;8.67;;;7.77;;
1404;SDS011;697;51.114;6.542;2022-07-21T09:57:13;12.17;;;7.73;;
1404;SDS011;697;51.114;6.542;2022-07-21T09:59:42;9.20;;;8.30;;
1404;SDS011;697;51.114;6.542;2022-07-21T10:02:11;8.30;;;7.60;;
1404;SDS011;697;51.114;6.542;2022-07-21T10:04:42;9.97;;;8.93;;
1404;SDS011;697;51.114;6.542;2022-07-21T10:07:09;10.13;;;9.10;;
1404;SDS011;697;51.114;6.542;2022-07-21T10:09:38;10.57;;;9.00;;
1404;SDS011;697;51.114;6.542;2022-07-21T10:12:06;10.93;;;9.83;;
1404;SDS011;697;51.114;6.542;2022-07-21T10:14:34;11.53;;;10.40;;
1404;SDS011;697;51.114;6.542;2022-07-21T10:17:02;11.40;;;10.23;;
1404;SDS011;697;51.114;6.542;2022-07-21T10:19:29;10.60;;;9.53;;
1404;SDS011;697;51.114;6.542;2022-07-21T10:22:04;10.30;;;9.30;;
1404;SDS011;697;51.114;6.542;2022-07-21T10:24:35;9.60;;;8.77;;
1404;SDS011;697;51.114;6.542;2022-07-21T10:27:06;8.33;;;7.63;;
1404;SDS011;697;51.114;6.542;2022-07-21T10:29:51;8.63;;;7.83;;
1404;SDS011;697;51.114;6.542;2022-07-21T10:32:20;9.10;;;8.20;;
1404;SDS011;697;51.114;6.542;2022-07-21T10:34:49;11.37;;;9.20;;
1404;SDS011;697;51.114;6.542;2022-07-21T10:40:35;10.50;;;9.60;;
1404;SDS011;697;51.114;6.542;2022-07-21T10:49:05;11.53;;;10.43;;
1404;SDS011;697;51.114;6.542;2022-07-21T10:51:34;10.77;;;9.67;;
1404;SDS011;697;51.114;6.542;2022-07-21T11:02:48;11.40;;;10.30;;
1404;SDS011;697;51.114;6.542;2022-07-21T11:05:16;10.03;;;9.03;;
1404;SDS011;697;51.114;6.542;2022-07-21T11:10:36;11.73;;;10.67;;
1404;SDS011;697;51.114;6.542;2022-07-21T11:13:04;9.70;;;8.80;;
1404;SDS011;697;51.114;6.542;2022-07-21T11:15:54;9.50;;;8.70;;
1404;SDS011;697;51.114;6.542;2022-07-21T11:18:23;9.70;;;8.70;;
1404;SDS011;697;51.114;6.542;2022-07-21T11:21:08;9.23;;;8.33;;
1404;SDS011;697;51.114;6.542;2022-07-21T11:23:38;8.77;;;7.53;;
1404;SDS011;697;51.114;6.542;2022-07-21T11:26:06;9.50;;;8.60;;
1404;SDS011;697;51.114;6.542;2022-07-21T11:28:35;7.90;;;7.23;;
1404;SDS011;697;51.114;6.542;2022-07-21T11:31:09;9.97;;;9.03;;
1404;SDS011;697;51.114;6.542;2022-07-21T11:33:38;7.90;;;7.10;;
1404;SDS011;697;51.114;6.542;2022-07-21T11:36:06;8.43;;;7.73;;
1404;SDS011;697;51.114;6.542;2022-07-21T11:38:33;8.03;;;7.27;;
1404;SDS011;697;51.114;6.542;2022-07-21T11:41:13;6.93;;;6.43;;
1404;SDS011;697;51.114;6.542;2022-07-21T11:43:43;6.73;;;5.87;;
1404;SDS011;697;51.114;6.542;2022-07-21T11:46:11;6.27;;;5.77;;
1404;SDS011;697;51.114;6.542;2022-07-21T11:48:38;5.80;;;5.37;;
1404;SDS011;697;51.114;6.542;2022-07-21T11:51:06;5.63;;;5.23;;
1404;SDS011;697;51.114;6.542;2022-07-21T11:53:33;5.70;;;5.23;;
1404;SDS011;697;51.114;6.542;2022-07-21T11:56:00;5.90;;;5.40;;
1404;SDS011;697;51.114;6.542;2022-07-21T11:58:27;7.47;;;6.47;;
1404;SDS011;697;51.114;6.542;2022-07-21T12:01:05;6.67;;;6.17;;
1404;SDS011;697;51.114;6.542;2022-07-21T12:03:34;6.40;;;5.80;;
1404;SDS011;697;51.114;6.542;2022-07-21T12:06:01;6.40;;;5.80;;
1404;SDS011;697;51.114;6.542;2022-07-21T12:08:29;6.77;;;6.27;;
1404;SDS011;697;51.114;6.542;2022-07-21T12:11:05;7.13;;;6.43;;
1404;SDS011;697;51.114;6.542;2022-07-21T12:16:19;6.10;;;5.60;;
1404;SDS011;697;51.114;6.542;2022-07-21T12:18:46;6.23;;;5.73;;
1404;SDS011;697;51.114;6.542;2022-07-21T12:21:13;6.30;;;5.70;;
1404;SDS011;697;51.114;6.542;2022-07-21T12:23:40;6.57;;;6.00;;
1404;SDS011;697;51.114;6.542;2022-07-21T12:26:08;6.00;;;5.50;;
1404;SDS011;697;51.114;6.542;2022-07-21T12:28:48;4.03;;;3.77;;
1404;SDS011;697;51.114;6.542;2022-07-21T12:31:19;3.20;;;2.80;;
1404;SDS011;697;51.114;6.542;2022-07-21T12:33:48;3.40;;;2.93;;
1404;SDS011;697;51.114;6.542;2022-07-21T12:36:16;4.30;;;4.00;;
1404;SDS011;697;51.114;6.542;2022-07-21T12:38:46;4.90;;;4.50;;
1404;SDS011;697;51.114;6.542;2022-07-21T12:41:16;4.97;;;4.53;;
1404;SDS011;697;51.114;6.542;2022-07-21T12:43:52;5.23;;;4.83;;
1404;SDS011;697;51.114;6.542;2022-07-21T12:46:26;6.13;;;5.63;;
1404;SDS011;697;51.114;6.542;2022-07-21T12:49:02;6.17;;;5.27;;
1404;SDS011;697;51.114;6.542;2022-07-21T12:51:30;5.80;;;5.33;;
1404;SDS011;697;51.114;6.542;2022-07-21T12:53:57;7.60;;;7.00;;
1404;SDS011;697;51.114;6.542;2022-07-21T12:56:24;8.63;;;7.20;;
1404;SDS011;697;51.114;6.542;2022-07-21T12:58:52;7.33;;;6.73;;
1404;SDS011;697;51.114;6.542;2022-07-21T13:01:22;8.60;;;7.90;;
1404;SDS011;697;51.114;6.542;2022-07-21T13:03:50;8.20;;;7.50;;
1404;SDS011;697;51.114;6.542;2022-07-21T13:06:17;11.10;;;8.70;;
1404;SDS011;697;51.114;6.542;2022-07-21T13:08:44;10.47;;;9.00;;
1404;SDS011;697;51.114;6.542;2022-07-21T13:11:13;10.20;;;9.40;;
1404;SDS011;697;51.114;6.542;2022-07-21T13:13:43;10.30;;;9.50;;
1404;SDS011;697;51.114;6.542;2022-07-21T13:16:10;9.50;;;8.80;;
1404;SDS011;697;51.114;6.542;2022-07-21T13:18:38;11.27;;;10.17;;
1404;SDS011;697;51.114;6.542;2022-07-21T13:21:05;11.50;;;10.60;;
1404;SDS011;697;51.114;6.542;2022-07-21T13:23:32;11.30;;;10.50;;
1404;SDS011;697;51.114;6.542;2022-07-21T13:26:00;12.30;;;11.10;;
1404;SDS011;697;51.114;6.542;2022-07-21T13:28:26;13.63;;;12.23;;
1404;SDS011;697;51.114;6.542;2022-07-21T13:30:53;13.23;;;12.20;;
1404;SDS011;697;51.114;6.542;2022-07-21T13:33:20;14.50;;;13.30;;
1404;SDS011;697;51.114;6.542;2022-07-21T13:35:48;14.30;;;13.00;;
1404;SDS011;697;51.114;6.542;2022-07-21T13:38:15;15.47;;;13.97;;
1404;SDS011;697;51.114;6.542;2022-07-21T13:40:42;15.03;;;13.63;;
1404;SDS011;697;51.114;6.542;2022-07-21T13:43:09;15.93;;;14.23;;
1404;SDS011;697;51.114;6.542;2022-07-21T13:45:37;16.40;;;14.67;;
1404;SDS011;697;51.114;6.542;2022-07-21T13:48:04;16.73;;;15.03;;
1404;SDS011;697;51.114;6.542;2022-07-21T13:50:30;16.97;;;15.43;;
1404;SDS011;697;51.114;6.542;2022-07-21T13:52:58;16.37;;;14.77;;
1404;SDS011;697;51.114;6.542;2022-07-21T13:55:25;18.10;;;16.20;;
1404;SDS011;697;51.114;6.542;2022-07-21T13:57:52;17.67;;;15.27;;
1404;SDS011;697;51.114;6.542;2022-07-21T14:00:19;14.50;;;13.20;;
1404;SDS011;697;51.114;6.542;2022-07-21T14:02:46;14.30;;;13.00;;
1404;SDS011;697;51.114;6.542;2022-07-21T14:05:13;13.83;;;12.57;;
1404;SDS011;697;51.114;6.542;2022-07-21T14:07:40;15.57;;;13.37;;
1404;SDS011;697;51.114;6.542;2022-07-21T14:10:08;13.60;;;12.30;;
1404;SDS011;697;51.114;6.542;2022-07-21T14:12:35;12.83;;;11.63;;
1404;SDS011;697;51.114;6.542;2022-07-21T14:15:03;11.20;;;10.00;;
1404;SDS011;697;51.114;6.542;2022-07-21T14:17:30;10.93;;;9.83;;
1404;SDS011;697;51.114;6.542;2022-07-21T14:19:57;9.57;;;8.73;;
1404;SDS011;697;51.114;6.542;2022-07-21T14:22:23;12.43;;;9.57;;
1404;SDS011;697;51.114;6.542;2022-07-21T14:24:50;9.50;;;8.63;;
1404;SDS011;697;51.114;6.542;2022-07-21T14:27:36;10.23;;;9.33;;
1404;SDS011;697;51.114;6.542;2022-07-21T14:30:03;8.80;;;8.00;;
1404;SDS011;697;51.114;6.542;2022-07-21T14:32:30;7.63;;;7.03;;
1404;SDS011;697;51.114;6.542;2022-07-21T14:34:57;8.47;;;7.67;;
1404;SDS011;697;51.114;6.542;2022-07-21T14:37:24;7.63;;;6.90;;
1404;SDS011;697;51.114;6.542;2022-07-21T14:39:51;7.33;;;6.40;;
1404;SDS011;697;51.114;6.542;2022-07-21T14:42:18;7.67;;;6.97;;
1404;SDS011;697;51.114;6.542;2022-07-21T14:44:46;6.93;;;6.23;;
1404;SDS011;697;51.114;6.542;2022-07-21T14:47:12;5.97;;;5.57;;
1404;SDS011;697;51.114;6.542;2022-07-21T14:49:39;7.10;;;6.50;;
1404;SDS011;697;51.114;6.542;2022-07-21T14:52:06;7.50;;;6.80;;
1404;SDS011;697;51.114;6.542;2022-07-21T14:54:34;7.43;;;6.73;;
1404;SDS011;697;51.114;6.542;2022-07-21T14:57:01;6.13;;;5.67;;
1404;SDS011;697;51.114;6.542;2022-07-21T14:59:28;6.67;;;6.17;;
1404;SDS011;697;51.114;6.542;2022-07-21T15:01:56;6.43;;;5.93;;
1404;SDS011;697;51.114;6.542;2022-07-21T15:04:23;5.90;;;5.50;;
1404;SDS011;697;51.114;6.542;2022-07-21T15:06:49;6.03;;;5.53;;
1404;SDS011;697;51.114;6.542;2022-07-21T15:09:16;9.20;;;4.90;;
1404;SDS011;697;51.114;6.542;2022-07-21T15:11:43;6.43;;;5.87;;
1404;SDS011;697;51.114;6.542;2022-07-21T15:14:10;6.10;;;5.50;;
1404;SDS011;697;51.114;6.542;2022-07-21T15:16:37;5.60;;;5.07;;
1404;SDS011;697;51.114;6.542;2022-07-21T15:19:05;7.00;;;5.50;;
1404;SDS011;697;51.114;6.542;2022-07-21T15:21:32;6.00;;;5.50;;
1404;SDS011;697;51.114;6.542;2022-07-21T15:23:59;5.77;;;5.17;;
1404;SDS011;697;51.114;6.542;2022-07-21T15:26:25;5.20;;;4.70;;
1404;SDS011;697;51.114;6.542;2022-07-21T15:28:52;4.70;;;4.30;;
1404;SDS011;697;51.114;6.542;2022-07-21T15:31:19;4.97;;;4.57;;
1404;SDS011;697;51.114;6.542;2022-07-21T15:33:46;7.10;;;4.67;;
1404;SDS011;697;51.114;6.542;2022-07-21T15:36:14;5.47;;;3.70;;
1404;SDS011;697;51.114;6.542;2022-07-21T15:38:41;4.40;;;4.10;;
1404;SDS011;697;51.114;6.542;2022-07-21T15:41:07;4.60;;;4.20;;
1404;SDS011;697;51.114;6.542;2022-07-21T15:43:34;5.30;;;4.57;;
1404;SDS011;697;51.114;6.542;2022-07-21T15:46:01;4.93;;;4.43;;
1404;SDS011;697;51.114;6.542;2022-07-21T15:48:28;5.83;;;4.37;;
1404;SDS011;697;51.114;6.542;2022-07-21T15:50:55;6.73;;;4.20;;